sensor_id;sensor_type;location;lat;lon;timestamp;P1;durP1;ratioP1;P2;durP2;ratioP2
52898;SDS011;38763;53.096;6.062;2023-03-14T00:00:37;23.58;;;3.90;;
52898;SDS011;38763;53.096;6.062;2023-03-14T00:03:03;19.98;;;4.35;;
52898;SDS011;38763;53.096;6.062;2023-03-14T00:05:29;24.10;;;4.47;;
52898;SDS011;38763;53.096;6.062;2023-03-14T00:07:55;21.15;;;4.70;;
52898;SDS011;38763;53.096;6.062;2023-03-14T00:10:21;23.70;;;4.60;;
52898;SDS011;38763;53.096;6.062;2023-03-14T00:12:46;27.75;;;5.00;;
52898;SDS011;38763;53.096;6.062;2023-03-14T00:15:12;25.55;;;4.05;;
52898;SDS011;38763;53.096;6.062;2023-03-14T00:17:38;27.92;;;4.53;;
52898;SDS011;38763;53.096;6.062;2023-03-14T00:20:05;22.88;;;3.65;;
52898;SDS011;38763;53.096;6.062;2023-03-14T00:22:35;24.15;;;3.72;;
52898;SDS011;38763;53.096;6.062;2023-03-14T00:25:01;20.88;;;3.63;;
52898;SDS011;38763;53.096;6.062;2023-03-14T00:27:28;27.23;;;4.03;;
52898;SDS011;38763;53.096;6.062;2023-03-14T00:29:53;23.33;;;3.70;;
52898;SDS011;38763;53.096;6.062;2023-03-14T00:32:19;24.00;;;3.47;;
52898;SDS011;38763;53.096;6.062;2023-03-14T00:34:44;20.85;;;3.70;;
52898;SDS011;38763;53.096;6.062;2023-03-14T00:37:10;16.33;;;3.75;;
52898;SDS011;38763;53.096;6.062;2023-03-14T00:39:36;19.23;;;3.50;;
52898;SDS011;38763;53.096;6.062;2023-03-14T00:42:01;19.33;;;3.53;;
52898;SDS011;38763;53.096;6.062;2023-03-14T00:44:27;26.63;;;4.20;;
52898;SDS011;38763;53.096;6.062;2023-03-14T00:46:53;25.02;;;4.43;;
52898;SDS011;38763;53.096;6.062;2023-03-14T00:49:18;26.45;;;3.63;;
52898;SDS011;38763;53.096;6.062;2023-03-14T00:51:44;20.20;;;3.92;;
52898;SDS011;38763;53.096;6.062;2023-03-14T00:54:10;22.35;;;3.40;;
52898;SDS011;38763;53.096;6.062;2023-03-14T00:56:36;19.27;;;3.08;;
52898;SDS011;38763;53.096;6.062;2023-03-14T00:59:01;20.08;;;3.85;;
52898;SDS011;38763;53.096;6.062;2023-03-14T01:01:27;19.48;;;3.25;;
52898;SDS011;38763;53.096;6.062;2023-03-14T01:03:53;22.42;;;3.35;;
52898;SDS011;38763;53.096;6.062;2023-03-14T01:06:21;15.68;;;3.28;;
52898;SDS011;38763;53.096;6.062;2023-03-14T01:08:48;20.98;;;3.65;;
52898;SDS011;38763;53.096;6.062;2023-03-14T01:11:18;16.52;;;3.97;;
52898;SDS011;38763;53.096;6.062;2023-03-14T01:13:47;17.10;;;3.50;;
52898;SDS011;38763;53.096;6.062;2023-03-14T01:16:13;18.25;;;2.85;;
52898;SDS011;38763;53.096;6.062;2023-03-14T01:18:40;15.55;;;2.88;;
52898;SDS011;38763;53.096;6.062;2023-03-14T01:21:12;15.38;;;2.40;;
52898;SDS011;38763;53.096;6.062;2023-03-14T01:23:49;17.98;;;2.97;;
52898;SDS011;38763;53.096;6.062;2023-03-14T01:26:18;18.85;;;3.35;;
52898;SDS011;38763;53.096;6.062;2023-03-14T01:28:46;18.95;;;3.13;;
52898;SDS011;38763;53.096;6.062;2023-03-14T01:31:12;14.75;;;2.80;;
52898;SDS011;38763;53.096;6.062;2023-03-14T01:33:38;14.82;;;3.53;;
52898;SDS011;38763;53.096;6.062;2023-03-14T01:36:04;21.58;;;2.88;;
52898;SDS011;38763;53.096;6.062;2023-03-14T01:38:31;18.15;;;3.13;;
52898;SDS011;38763;53.096;6.062;2023-03-14T01:40:58;15.05;;;3.47;;
52898;SDS011;38763;53.096;6.062;2023-03-14T01:43:24;20.88;;;3.28;;
52898;SDS011;38763;53.096;6.062;2023-03-14T01:48:35;22.42;;;2.90;;
52898;SDS011;38763;53.096;6.062;2023-03-14T01:51:09;15.77;;;2.67;;
52898;SDS011;38763;53.096;6.062;2023-03-14T01:53:39;14.40;;;2.60;;
52898;SDS011;38763;53.096;6.062;2023-03-14T01:56:08;14.43;;;3.22;;
52898;SDS011;38763;53.096;6.062;2023-03-14T01:58:35;16.85;;;2.50;;
52898;SDS011;38763;53.096;6.062;2023-03-14T02:01:02;18.77;;;2.58;;
52898;SDS011;38763;53.096;6.062;2023-03-14T02:03:29;14.35;;;2.53;;
52898;SDS011;38763;53.096;6.062;2023-03-14T02:06:00;17.48;;;2.10;;
52898;SDS011;38763;53.096;6.062;2023-03-14T02:08:31;18.27;;;2.40;;
52898;SDS011;38763;53.096;6.062;2023-03-14T02:10:58;19.08;;;2.85;;
52898;SDS011;38763;53.096;6.062;2023-03-14T02:13:23;13.77;;;2.75;;
52898;SDS011;38763;53.096;6.062;2023-03-14T02:15:49;17.33;;;3.40;;
52898;SDS011;38763;53.096;6.062;2023-03-14T02:18:15;15.65;;;2.22;;
52898;SDS011;38763;53.096;6.062;2023-03-14T02:21:04;13.85;;;2.60;;
52898;SDS011;38763;53.096;6.062;2023-03-14T02:26:11;13.10;;;2.15;;
52898;SDS011;38763;53.096;6.062;2023-03-14T02:28:44;14.43;;;2.40;;
52898;SDS011;38763;53.096;6.062;2023-03-14T02:31:10;15.68;;;2.15;;
52898;SDS011;38763;53.096;6.062;2023-03-14T02:33:37;15.63;;;2.40;;
52898;SDS011;38763;53.096;6.062;2023-03-14T02:36:11;14.93;;;2.60;;
52898;SDS011;38763;53.096;6.062;2023-03-14T02:41:08;16.70;;;2.63;;
52898;SDS011;38763;53.096;6.062;2023-03-14T02:43:34;12.27;;;2.90;;
52898;SDS011;38763;53.096;6.062;2023-03-14T02:46:00;18.83;;;2.65;;
52898;SDS011;38763;53.096;6.062;2023-03-14T02:48:29;19.42;;;3.03;;
52898;SDS011;38763;53.096;6.062;2023-03-14T02:50:59;18.17;;;3.22;;
52898;SDS011;38763;53.096;6.062;2023-03-14T02:53:30;16.77;;;2.67;;
52898;SDS011;38763;53.096;6.062;2023-03-14T02:55:58;16.85;;;3.03;;
52898;SDS011;38763;53.096;6.062;2023-03-14T02:58:24;16.58;;;3.03;;
52898;SDS011;38763;53.096;6.062;2023-03-14T03:00:50;19.33;;;2.80;;
52898;SDS011;38763;53.096;6.062;2023-03-14T03:03:16;20.48;;;3.90;;
52898;SDS011;38763;53.096;6.062;2023-03-14T03:05:42;17.95;;;2.83;;
52898;SDS011;38763;53.096;6.062;2023-03-14T03:08:08;20.67;;;3.10;;
52898;SDS011;38763;53.096;6.062;2023-03-14T03:10:34;21.42;;;3.70;;
52898;SDS011;38763;53.096;6.062;2023-03-14T03:13:00;17.83;;;2.75;;
52898;SDS011;38763;53.096;6.062;2023-03-14T03:15:26;19.08;;;3.58;;
52898;SDS011;38763;53.096;6.062;2023-03-14T03:17:52;20.52;;;3.33;;
52898;SDS011;38763;53.096;6.062;2023-03-14T03:20:18;19.45;;;3.47;;
52898;SDS011;38763;53.096;6.062;2023-03-14T03:22:43;23.92;;;3.25;;
52898;SDS011;38763;53.096;6.062;2023-03-14T03:25:09;25.85;;;4.03;;
52898;SDS011;38763;53.096;6.062;2023-03-14T03:27:36;24.00;;;4.15;;
52898;SDS011;38763;53.096;6.062;2023-03-14T03:30:03;25.13;;;4.07;;
52898;SDS011;38763;53.096;6.062;2023-03-14T03:32:30;22.90;;;3.60;;
52898;SDS011;38763;53.096;6.062;2023-03-14T03:34:56;24.95;;;3.95;;
52898;SDS011;38763;53.096;6.062;2023-03-14T03:37:22;28.92;;;3.92;;
52898;SDS011;38763;53.096;6.062;2023-03-14T03:39:49;21.00;;;3.50;;
52898;SDS011;38763;53.096;6.062;2023-03-14T03:42:16;22.73;;;3.33;;
52898;SDS011;38763;53.096;6.062;2023-03-14T03:44:42;24.25;;;4.25;;
52898;SDS011;38763;53.096;6.062;2023-03-14T03:47:07;27.38;;;3.50;;
52898;SDS011;38763;53.096;6.062;2023-03-14T03:49:33;34.88;;;4.70;;
52898;SDS011;38763;53.096;6.062;2023-03-14T03:51:59;28.17;;;4.07;;
52898;SDS011;38763;53.096;6.062;2023-03-14T03:54:25;27.85;;;3.70;;
52898;SDS011;38763;53.096;6.062;2023-03-14T03:56:51;19.23;;;4.38;;
52898;SDS011;38763;53.096;6.062;2023-03-14T03:59:17;26.42;;;4.30;;
52898;SDS011;38763;53.096;6.062;2023-03-14T04:01:43;24.02;;;3.80;;
52898;SDS011;38763;53.096;6.062;2023-03-14T04:04:09;25.98;;;3.72;;
52898;SDS011;38763;53.096;6.062;2023-03-14T04:06:35;27.33;;;4.13;;
52898;SDS011;38763;53.096;6.062;2023-03-14T04:09:01;24.17;;;3.53;;
52898;SDS011;38763;53.096;6.062;2023-03-14T04:11:28;24.75;;;4.00;;
52898;SDS011;38763;53.096;6.062;2023-03-14T04:13:53;23.02;;;3.38;;
52898;SDS011;38763;53.096;6.062;2023-03-14T04:16:20;30.02;;;4.05;;
52898;SDS011;38763;53.096;6.062;2023-03-14T04:18:47;26.77;;;3.72;;
52898;SDS011;38763;53.096;6.062;2023-03-14T04:21:13;30.17;;;4.28;;
52898;SDS011;38763;53.096;6.062;2023-03-14T04:23:39;20.30;;;3.60;;
52898;SDS011;38763;53.096;6.062;2023-03-14T04:26:05;20.65;;;3.70;;
52898;SDS011;38763;53.096;6.062;2023-03-14T04:28:31;25.40;;;3.63;;
52898;SDS011;38763;53.096;6.062;2023-03-14T04:30:56;24.90;;;3.88;;
52898;SDS011;38763;53.096;6.062;2023-03-14T04:33:22;26.73;;;4.03;;
52898;SDS011;38763;53.096;6.062;2023-03-14T04:35:48;24.88;;;3.88;;
52898;SDS011;38763;53.096;6.062;2023-03-14T04:38:15;19.13;;;3.80;;
52898;SDS011;38763;53.096;6.062;2023-03-14T04:40:41;24.65;;;3.95;;
52898;SDS011;38763;53.096;6.062;2023-03-14T04:43:07;30.17;;;5.03;;
52898;SDS011;38763;53.096;6.062;2023-03-14T04:45:34;24.23;;;5.18;;
52898;SDS011;38763;53.096;6.062;2023-03-14T04:48:00;26.40;;;5.43;;
52898;SDS011;38763;53.096;6.062;2023-03-14T04:50:26;26.05;;;5.55;;
52898;SDS011;38763;53.096;6.062;2023-03-14T04:52:52;23.77;;;5.50;;
52898;SDS011;38763;53.096;6.062;2023-03-14T04:55:17;27.65;;;6.55;;
52898;SDS011;38763;53.096;6.062;2023-03-14T04:57:43;29.25;;;6.18;;
52898;SDS011;38763;53.096;6.062;2023-03-14T05:00:09;22.73;;;5.82;;
52898;SDS011;38763;53.096;6.062;2023-03-14T05:02:35;18.17;;;5.82;;
52898;SDS011;38763;53.096;6.062;2023-03-14T05:05:01;21.40;;;6.18;;
52898;SDS011;38763;53.096;6.062;2023-03-14T05:07:26;24.85;;;6.10;;
52898;SDS011;38763;53.096;6.062;2023-03-14T05:09:52;21.45;;;5.90;;
52898;SDS011;38763;53.096;6.062;2023-03-14T05:12:18;25.30;;;6.20;;
52898;SDS011;38763;53.096;6.062;2023-03-14T05:14:45;23.85;;;6.13;;
52898;SDS011;38763;53.096;6.062;2023-03-14T05:17:10;22.45;;;6.20;;
52898;SDS011;38763;53.096;6.062;2023-03-14T05:19:39;21.65;;;6.35;;
52898;SDS011;38763;53.096;6.062;2023-03-14T05:22:05;19.48;;;6.05;;
52898;SDS011;38763;53.096;6.062;2023-03-14T05:24:31;19.63;;;6.90;;
52898;SDS011;38763;53.096;6.062;2023-03-14T05:26:57;19.95;;;6.90;;
52898;SDS011;38763;53.096;6.062;2023-03-14T05:29:22;21.38;;;6.03;;
52898;SDS011;38763;53.096;6.062;2023-03-14T05:31:48;22.33;;;6.10;;
52898;SDS011;38763;53.096;6.062;2023-03-14T05:34:14;17.13;;;5.03;;
52898;SDS011;38763;53.096;6.062;2023-03-14T05:36:39;12.73;;;5.70;;
52898;SDS011;38763;53.096;6.062;2023-03-14T05:39:05;19.52;;;5.28;;
52898;SDS011;38763;53.096;6.062;2023-03-14T05:41:30;17.17;;;4.97;;
52898;SDS011;38763;53.096;6.062;2023-03-14T05:43:56;19.40;;;5.82;;
52898;SDS011;38763;53.096;6.062;2023-03-14T05:46:22;20.00;;;5.60;;
52898;SDS011;38763;53.096;6.062;2023-03-14T05:48:47;19.55;;;6.25;;
52898;SDS011;38763;53.096;6.062;2023-03-14T05:51:13;16.88;;;6.20;;
52898;SDS011;38763;53.096;6.062;2023-03-14T05:53:39;24.17;;;6.30;;
52898;SDS011;38763;53.096;6.062;2023-03-14T05:56:04;17.05;;;5.88;;
52898;SDS011;38763;53.096;6.062;2023-03-14T05:58:30;11.60;;;5.30;;
52898;SDS011;38763;53.096;6.062;2023-03-14T06:00:56;13.57;;;5.53;;
52898;SDS011;38763;53.096;6.062;2023-03-14T06:03:22;11.00;;;4.95;;
52898;SDS011;38763;53.096;6.062;2023-03-14T06:05:50;19.77;;;5.35;;
52898;SDS011;38763;53.096;6.062;2023-03-14T06:08:16;12.43;;;5.38;;
52898;SDS011;38763;53.096;6.062;2023-03-14T06:10:42;12.10;;;4.43;;
52898;SDS011;38763;53.096;6.062;2023-03-14T06:13:07;12.43;;;4.85;;
52898;SDS011;38763;53.096;6.062;2023-03-14T06:15:33;13.75;;;4.53;;
52898;SDS011;38763;53.096;6.062;2023-03-14T06:18:00;18.75;;;5.13;;
52898;SDS011;38763;53.096;6.062;2023-03-14T06:20:25;7.90;;;1.65;;
52898;SDS011;38763;53.096;6.062;2023-03-14T06:22:51;10.50;;;1.45;;
52898;SDS011;38763;53.096;6.062;2023-03-14T06:25:17;18.48;;;1.80;;
52898;SDS011;38763;53.096;6.062;2023-03-14T06:27:42;14.75;;;1.40;;
52898;SDS011;38763;53.096;6.062;2023-03-14T06:30:08;13.45;;;1.50;;
52898;SDS011;38763;53.096;6.062;2023-03-14T06:32:34;16.20;;;2.10;;
52898;SDS011;38763;53.096;6.062;2023-03-14T06:35:00;14.52;;;1.70;;
52898;SDS011;38763;53.096;6.062;2023-03-14T06:37:29;16.65;;;1.75;;
52898;SDS011;38763;53.096;6.062;2023-03-14T06:39:55;15.63;;;2.05;;
52898;SDS011;38763;53.096;6.062;2023-03-14T06:42:20;16.38;;;2.30;;
52898;SDS011;38763;53.096;6.062;2023-03-14T06:44:47;12.98;;;2.08;;
52898;SDS011;38763;53.096;6.062;2023-03-14T06:47:12;13.23;;;1.67;;
52898;SDS011;38763;53.096;6.062;2023-03-14T06:49:38;11.27;;;1.90;;
52898;SDS011;38763;53.096;6.062;2023-03-14T06:52:04;10.35;;;1.95;;
52898;SDS011;38763;53.096;6.062;2023-03-14T06:54:30;13.20;;;1.80;;
52898;SDS011;38763;53.096;6.062;2023-03-14T06:56:56;11.35;;;1.30;;
52898;SDS011;38763;53.096;6.062;2023-03-14T06:59:21;12.15;;;1.75;;
52898;SDS011;38763;53.096;6.062;2023-03-14T07:01:47;9.35;;;1.52;;
52898;SDS011;38763;53.096;6.062;2023-03-14T07:04:15;7.80;;;0.98;;
52898;SDS011;38763;53.096;6.062;2023-03-14T07:06:42;5.93;;;1.00;;
52898;SDS011;38763;53.096;6.062;2023-03-14T07:09:10;4.45;;;0.75;;
52898;SDS011;38763;53.096;6.062;2023-03-14T07:11:36;9.52;;;1.35;;
52898;SDS011;38763;53.096;6.062;2023-03-14T07:14:02;9.50;;;1.00;;
52898;SDS011;38763;53.096;6.062;2023-03-14T07:16:28;4.10;;;0.90;;
52898;SDS011;38763;53.096;6.062;2023-03-14T07:18:56;7.22;;;1.20;;
52898;SDS011;38763;53.096;6.062;2023-03-14T07:21:22;7.47;;;0.82;;
52898;SDS011;38763;53.096;6.062;2023-03-14T07:23:48;14.77;;;1.27;;
52898;SDS011;38763;53.096;6.062;2023-03-14T07:26:14;5.43;;;1.20;;
52898;SDS011;38763;53.096;6.062;2023-03-14T07:28:39;7.78;;;0.88;;
52898;SDS011;38763;53.096;6.062;2023-03-14T07:31:05;4.93;;;0.95;;
52898;SDS011;38763;53.096;6.062;2023-03-14T07:33:31;10.32;;;1.63;;
52898;SDS011;38763;53.096;6.062;2023-03-14T07:35:57;7.82;;;1.45;;
52898;SDS011;38763;53.096;6.062;2023-03-14T07:38:23;6.95;;;0.82;;
52898;SDS011;38763;53.096;6.062;2023-03-14T07:40:49;5.93;;;0.95;;
52898;SDS011;38763;53.096;6.062;2023-03-14T07:43:15;4.93;;;1.02;;
52898;SDS011;38763;53.096;6.062;2023-03-14T07:45:40;7.90;;;1.05;;
52898;SDS011;38763;53.096;6.062;2023-03-14T07:48:06;4.20;;;1.10;;
52898;SDS011;38763;53.096;6.062;2023-03-14T07:50:32;7.97;;;1.40;;
52898;SDS011;38763;53.096;6.062;2023-03-14T07:52:57;7.07;;;1.23;;
52898;SDS011;38763;53.096;6.062;2023-03-14T07:55:23;12.30;;;1.15;;
52898;SDS011;38763;53.096;6.062;2023-03-14T07:57:49;9.13;;;1.13;;
52898;SDS011;38763;53.096;6.062;2023-03-14T08:00:14;10.60;;;1.30;;
52898;SDS011;38763;53.096;6.062;2023-03-14T08:02:40;8.80;;;1.83;;
52898;SDS011;38763;53.096;6.062;2023-03-14T08:05:06;8.20;;;1.20;;
52898;SDS011;38763;53.096;6.062;2023-03-14T08:07:33;15.88;;;1.60;;
52898;SDS011;38763;53.096;6.062;2023-03-14T08:09:58;12.18;;;1.30;;
52898;SDS011;38763;53.096;6.062;2023-03-14T08:12:24;9.43;;;1.40;;
52898;SDS011;38763;53.096;6.062;2023-03-14T08:14:49;11.55;;;1.30;;
52898;SDS011;38763;53.096;6.062;2023-03-14T08:17:15;7.68;;;1.30;;
52898;SDS011;38763;53.096;6.062;2023-03-14T08:19:41;10.88;;;1.52;;
52898;SDS011;38763;53.096;6.062;2023-03-14T08:22:07;7.47;;;1.38;;
52898;SDS011;38763;53.096;6.062;2023-03-14T08:24:32;10.68;;;1.70;;
52898;SDS011;38763;53.096;6.062;2023-03-14T08:26:58;9.40;;;1.60;;
52898;SDS011;38763;53.096;6.062;2023-03-14T08:29:24;13.13;;;2.00;;
52898;SDS011;38763;53.096;6.062;2023-03-14T08:31:50;13.15;;;2.78;;
52898;SDS011;38763;53.096;6.062;2023-03-14T08:34:15;12.52;;;1.83;;
52898;SDS011;38763;53.096;6.062;2023-03-14T08:36:41;15.32;;;1.90;;
52898;SDS011;38763;53.096;6.062;2023-03-14T08:39:07;15.18;;;2.28;;
52898;SDS011;38763;53.096;6.062;2023-03-14T08:41:34;18.20;;;1.92;;
52898;SDS011;38763;53.096;6.062;2023-03-14T08:44:05;18.90;;;2.10;;
52898;SDS011;38763;53.096;6.062;2023-03-14T08:46:31;17.10;;;2.22;;
52898;SDS011;38763;53.096;6.062;2023-03-14T08:48:57;12.25;;;2.00;;
52898;SDS011;38763;53.096;6.062;2023-03-14T08:51:23;17.27;;;2.72;;
52898;SDS011;38763;53.096;6.062;2023-03-14T08:53:48;16.52;;;3.05;;
52898;SDS011;38763;53.096;6.062;2023-03-14T08:56:14;18.95;;;2.30;;
52898;SDS011;38763;53.096;6.062;2023-03-14T08:58:40;17.92;;;2.30;;
52898;SDS011;38763;53.096;6.062;2023-03-14T09:01:16;18.33;;;2.67;;
52898;SDS011;38763;53.096;6.062;2023-03-14T09:03:44;16.80;;;2.65;;
52898;SDS011;38763;53.096;6.062;2023-03-14T09:06:11;13.45;;;2.45;;
52898;SDS011;38763;53.096;6.062;2023-03-14T09:08:36;19.60;;;2.85;;
52898;SDS011;38763;53.096;6.062;2023-03-14T09:11:02;16.20;;;2.22;;
52898;SDS011;38763;53.096;6.062;2023-03-14T09:13:28;18.10;;;2.55;;
52898;SDS011;38763;53.096;6.062;2023-03-14T09:15:54;22.55;;;3.05;;
52898;SDS011;38763;53.096;6.062;2023-03-14T09:18:20;17.55;;;2.70;;
52898;SDS011;38763;53.096;6.062;2023-03-14T09:20:47;14.02;;;2.40;;
52898;SDS011;38763;53.096;6.062;2023-03-14T09:23:13;18.67;;;2.85;;
52898;SDS011;38763;53.096;6.062;2023-03-14T09:25:39;15.93;;;2.97;;
52898;SDS011;38763;53.096;6.062;2023-03-14T09:28:04;19.05;;;3.70;;
52898;SDS011;38763;53.096;6.062;2023-03-14T09:30:30;18.92;;;2.95;;
52898;SDS011;38763;53.096;6.062;2023-03-14T09:32:56;14.98;;;3.30;;
52898;SDS011;38763;53.096;6.062;2023-03-14T09:35:22;19.67;;;3.17;;
52898;SDS011;38763;53.096;6.062;2023-03-14T09:37:48;22.77;;;2.90;;
52898;SDS011;38763;53.096;6.062;2023-03-14T09:40:18;21.50;;;2.90;;
52898;SDS011;38763;53.096;6.062;2023-03-14T09:42:45;12.23;;;2.33;;
52898;SDS011;38763;53.096;6.062;2023-03-14T09:45:30;21.45;;;3.83;;
52898;SDS011;38763;53.096;6.062;2023-03-14T09:48:02;21.13;;;3.25;;
52898;SDS011;38763;53.096;6.062;2023-03-14T09:50:35;18.38;;;2.72;;
52898;SDS011;38763;53.096;6.062;2023-03-14T09:53:06;17.27;;;2.90;;
52898;SDS011;38763;53.096;6.062;2023-03-14T09:58:05;19.73;;;3.33;;
52898;SDS011;38763;53.096;6.062;2023-03-14T10:00:36;16.00;;;2.42;;
52898;SDS011;38763;53.096;6.062;2023-03-14T10:05:36;17.35;;;2.58;;
52898;SDS011;38763;53.096;6.062;2023-03-14T10:08:02;19.60;;;2.67;;
52898;SDS011;38763;53.096;6.062;2023-03-14T10:10:28;16.00;;;2.67;;
52898;SDS011;38763;53.096;6.062;2023-03-14T10:15:35;14.15;;;2.30;;
52898;SDS011;38763;53.096;6.062;2023-03-14T10:18:02;16.95;;;2.80;;
52898;SDS011;38763;53.096;6.062;2023-03-14T10:20:35;12.23;;;2.15;;
52898;SDS011;38763;53.096;6.062;2023-03-14T10:23:04;14.43;;;2.33;;
52898;SDS011;38763;53.096;6.062;2023-03-14T10:25:33;16.20;;;2.45;;
52898;SDS011;38763;53.096;6.062;2023-03-14T10:28:00;15.38;;;1.98;;
52898;SDS011;38763;53.096;6.062;2023-03-14T10:30:30;13.90;;;2.17;;
52898;SDS011;38763;53.096;6.062;2023-03-14T10:33:31;17.08;;;2.15;;
52898;SDS011;38763;53.096;6.062;2023-03-14T10:35:57;15.02;;;1.92;;
52898;SDS011;38763;53.096;6.062;2023-03-14T10:38:26;13.75;;;2.30;;
52898;SDS011;38763;53.096;6.062;2023-03-14T10:40:53;16.77;;;2.10;;
52898;SDS011;38763;53.096;6.062;2023-03-14T10:43:25;15.15;;;2.13;;
52898;SDS011;38763;53.096;6.062;2023-03-14T10:46:00;10.18;;;1.90;;
52898;SDS011;38763;53.096;6.062;2023-03-14T10:48:33;10.98;;;1.77;;
52898;SDS011;38763;53.096;6.062;2023-03-14T10:51:07;13.38;;;2.10;;
52898;SDS011;38763;53.096;6.062;2023-03-14T10:53:45;7.97;;;1.70;;
52898;SDS011;38763;53.096;6.062;2023-03-14T10:56:13;11.43;;;1.88;;
52898;SDS011;38763;53.096;6.062;2023-03-14T10:58:42;10.50;;;2.17;;
52898;SDS011;38763;53.096;6.062;2023-03-14T11:01:13;11.98;;;2.15;;
52898;SDS011;38763;53.096;6.062;2023-03-14T11:03:51;8.18;;;1.98;;
52898;SDS011;38763;53.096;6.062;2023-03-14T11:07:23;9.88;;;1.67;;
52898;SDS011;38763;53.096;6.062;2023-03-14T11:09:25;13.25;;;1.75;;
52898;SDS011;38763;53.096;6.062;2023-03-14T11:13:03;12.82;;;2.58;;
52898;SDS011;38763;53.096;6.062;2023-03-14T11:15:05;11.20;;;1.60;;
52898;SDS011;38763;53.096;6.062;2023-03-14T11:20:47;5.15;;;1.20;;
52898;SDS011;38763;53.096;6.062;2023-03-14T11:23:37;19.73;;;2.25;;
52898;SDS011;38763;53.096;6.062;2023-03-14T11:26:32;9.90;;;1.75;;
52898;SDS011;38763;53.096;6.062;2023-03-14T11:29:08;9.07;;;1.40;;
52898;SDS011;38763;53.096;6.062;2023-03-14T11:31:47;6.25;;;1.30;;
52898;SDS011;38763;53.096;6.062;2023-03-14T11:34:15;6.10;;;1.33;;
52898;SDS011;38763;53.096;6.062;2023-03-14T11:36:51;5.47;;;1.13;;
52898;SDS011;38763;53.096;6.062;2023-03-14T11:39:35;7.18;;;1.27;;
52898;SDS011;38763;53.096;6.062;2023-03-14T11:42:04;6.60;;;1.27;;
52898;SDS011;38763;53.096;6.062;2023-03-14T11:44:33;10.52;;;1.60;;
52898;SDS011;38763;53.096;6.062;2023-03-14T11:49:42;7.03;;;1.40;;
52898;SDS011;38763;53.096;6.062;2023-03-14T11:54:45;8.93;;;1.50;;
52898;SDS011;38763;53.096;6.062;2023-03-14T11:57:18;9.63;;;1.65;;
52898;SDS011;38763;53.096;6.062;2023-03-14T12:07:42;8.05;;;1.23;;
52898;SDS011;38763;53.096;6.062;2023-03-14T12:10:19;12.13;;;1.60;;
52898;SDS011;38763;53.096;6.062;2023-03-14T12:12:45;13.98;;;1.98;;
52898;SDS011;38763;53.096;6.062;2023-03-14T12:15:21;9.57;;;1.70;;
52898;SDS011;38763;53.096;6.062;2023-03-14T12:17:53;12.77;;;1.70;;
52898;SDS011;38763;53.096;6.062;2023-03-14T12:20:21;9.68;;;1.55;;
52898;SDS011;38763;53.096;6.062;2023-03-14T12:22:49;12.77;;;1.92;;
52898;SDS011;38763;53.096;6.062;2023-03-14T12:35:47;9.93;;;1.30;;
52898;SDS011;38763;53.096;6.062;2023-03-14T12:41:48;9.90;;;1.65;;
52898;SDS011;38763;53.096;6.062;2023-03-14T12:43:53;10.27;;;1.55;;
52898;SDS011;38763;53.096;6.062;2023-03-14T12:46:24;9.85;;;1.38;;
52898;SDS011;38763;53.096;6.062;2023-03-14T12:54:11;6.82;;;1.58;;
52898;SDS011;38763;53.096;6.062;2023-03-14T12:59:29;6.43;;;1.33;;
52898;SDS011;38763;53.096;6.062;2023-03-14T13:04:32;7.40;;;1.50;;
52898;SDS011;38763;53.096;6.062;2023-03-14T13:12:48;7.47;;;1.50;;
52898;SDS011;38763;53.096;6.062;2023-03-14T13:15:17;9.27;;;1.38;;
52898;SDS011;38763;53.096;6.062;2023-03-14T13:17:48;5.05;;;1.33;;
52898;SDS011;38763;53.096;6.062;2023-03-14T13:20:35;18.30;;;1.90;;
52898;SDS011;38763;53.096;6.062;2023-03-14T13:23:04;7.85;;;1.50;;
52898;SDS011;38763;53.096;6.062;2023-03-14T13:25:32;7.88;;;1.38;;
52898;SDS011;38763;53.096;6.062;2023-03-14T13:28:00;7.90;;;1.38;;
52898;SDS011;38763;53.096;6.062;2023-03-14T13:30:28;7.28;;;1.40;;
52898;SDS011;38763;53.096;6.062;2023-03-14T13:33:02;7.53;;;1.17;;
52898;SDS011;38763;53.096;6.062;2023-03-14T13:35:29;8.30;;;1.10;;
52898;SDS011;38763;53.096;6.062;2023-03-14T13:38:13;6.65;;;1.20;;
52898;SDS011;38763;53.096;6.062;2023-03-14T13:40:42;8.32;;;1.42;;
52898;SDS011;38763;53.096;6.062;2023-03-14T13:45:50;8.40;;;1.30;;
52898;SDS011;38763;53.096;6.062;2023-03-14T13:48:18;8.75;;;1.60;;
52898;SDS011;38763;53.096;6.062;2023-03-14T13:50:50;10.25;;;1.70;;
52898;SDS011;38763;53.096;6.062;2023-03-14T13:53:17;8.88;;;1.45;;
52898;SDS011;38763;53.096;6.062;2023-03-14T13:55:43;11.10;;;1.42;;
52898;SDS011;38763;53.096;6.062;2023-03-14T13:58:11;9.32;;;1.75;;
52898;SDS011;38763;53.096;6.062;2023-03-14T14:00:52;11.18;;;1.50;;
52898;SDS011;38763;53.096;6.062;2023-03-14T14:03:27;14.77;;;1.52;;
52898;SDS011;38763;53.096;6.062;2023-03-14T14:05:56;7.35;;;1.35;;
52898;SDS011;38763;53.096;6.062;2023-03-14T14:08:23;7.57;;;1.58;;
52898;SDS011;38763;53.096;6.062;2023-03-14T14:10:50;9.10;;;1.60;;
52898;SDS011;38763;53.096;6.062;2023-03-14T14:13:21;8.77;;;1.45;;
52898;SDS011;38763;53.096;6.062;2023-03-14T14:15:50;9.18;;;1.42;;
52898;SDS011;38763;53.096;6.062;2023-03-14T14:18:18;9.35;;;1.38;;
52898;SDS011;38763;53.096;6.062;2023-03-14T14:20:47;4.15;;;1.10;;
52898;SDS011;38763;53.096;6.062;2023-03-14T14:23:17;8.43;;;1.35;;
52898;SDS011;38763;53.096;6.062;2023-03-14T14:25:54;8.32;;;1.10;;
52898;SDS011;38763;53.096;6.062;2023-03-14T14:28:34;5.15;;;1.30;;
52898;SDS011;38763;53.096;6.062;2023-03-14T14:36:36;7.15;;;1.20;;
52898;SDS011;38763;53.096;6.062;2023-03-14T14:39:05;6.25;;;1.02;;
52898;SDS011;38763;53.096;6.062;2023-03-14T14:41:47;8.27;;;1.25;;
52898;SDS011;38763;53.096;6.062;2023-03-14T14:44:16;11.63;;;1.30;;
52898;SDS011;38763;53.096;6.062;2023-03-14T14:46:45;7.90;;;1.50;;
52898;SDS011;38763;53.096;6.062;2023-03-14T14:49:17;8.00;;;1.20;;
52898;SDS011;38763;53.096;6.062;2023-03-14T14:51:47;15.60;;;1.88;;
52898;SDS011;38763;53.096;6.062;2023-03-14T14:54:14;7.25;;;1.50;;
52898;SDS011;38763;53.096;6.062;2023-03-14T14:56:46;6.90;;;1.50;;
52898;SDS011;38763;53.096;6.062;2023-03-14T14:59:18;9.18;;;1.35;;
52898;SDS011;38763;53.096;6.062;2023-03-14T15:01:50;6.72;;;1.35;;
52898;SDS011;38763;53.096;6.062;2023-03-14T15:04:21;7.57;;;1.63;;
52898;SDS011;38763;53.096;6.062;2023-03-14T15:06:47;12.10;;;1.88;;
52898;SDS011;38763;53.096;6.062;2023-03-14T15:09:15;11.10;;;1.55;;
52898;SDS011;38763;53.096;6.062;2023-03-14T15:11:45;9.73;;;1.20;;
52898;SDS011;38763;53.096;6.062;2023-03-14T15:14:11;11.05;;;1.58;;
52898;SDS011;38763;53.096;6.062;2023-03-14T15:16:37;6.97;;;1.38;;
52898;SDS011;38763;53.096;6.062;2023-03-14T15:19:11;4.60;;;1.25;;
52898;SDS011;38763;53.096;6.062;2023-03-14T15:21:43;9.98;;;1.35;;
52898;SDS011;38763;53.096;6.062;2023-03-14T15:24:09;10.13;;;1.50;;
52898;SDS011;38763;53.096;6.062;2023-03-14T15:26:34;15.38;;;2.00;;
52898;SDS011;38763;53.096;6.062;2023-03-14T15:29:00;6.88;;;1.27;;
52898;SDS011;38763;53.096;6.062;2023-03-14T15:31:26;9.55;;;1.50;;
52898;SDS011;38763;53.096;6.062;2023-03-14T15:33:51;9.75;;;1.42;;
52898;SDS011;38763;53.096;6.062;2023-03-14T15:36:28;8.30;;;1.40;;
52898;SDS011;38763;53.096;6.062;2023-03-14T15:38:56;8.90;;;1.50;;
52898;SDS011;38763;53.096;6.062;2023-03-14T15:41:22;8.70;;;1.55;;
52898;SDS011;38763;53.096;6.062;2023-03-14T15:43:48;9.05;;;1.65;;
52898;SDS011;38763;53.096;6.062;2023-03-14T15:46:14;9.48;;;1.42;;
52898;SDS011;38763;53.096;6.062;2023-03-14T15:48:42;11.45;;;1.58;;
52898;SDS011;38763;53.096;6.062;2023-03-14T15:51:09;8.18;;;1.35;;
52898;SDS011;38763;53.096;6.062;2023-03-14T15:53:35;8.98;;;1.80;;